createdAt,value
2018-01-21T00:00:36.393Z,99251.41
2018-01-21T00:03:06.302Z,99247.13
2018-01-21T00:05:36.661Z,99254.87
2018-01-21T00:08:06.747Z,99262.37
2018-01-21T00:10:37.209Z,99265.13
2018-01-21T00:13:06.758Z,99268.45
2018-01-21T00:15:36.902Z,99269.88
2018-01-21T00:18:06.197Z,99279.06
2018-01-21T00:20:35.713Z,99289.86
2018-01-21T00:23:05.356Z,99292.67
2018-01-21T00:25:34.946Z,99297.00
2018-01-21T00:28:05.464Z,99308.66
2018-01-21T00:30:35.764Z,99313.81
2018-01-21T00:33:04.931Z,99321.30
2018-01-21T00:35:35.407Z,99321.38
2018-01-21T00:38:05.974Z,99325.11
2018-01-21T00:40:35.083Z,99337.33
2018-01-21T00:43:04.822Z,99351.98
2018-01-21T00:45:33.941Z,99348.59
2018-01-21T00:48:03.530Z,99360.99
2018-01-21T00:50:33.219Z,99361.79
2018-01-21T00:53:02.724Z,99367.77
2018-01-21T00:55:31.931Z,99376.42
2018-01-21T00:58:03.778Z,99379.63
2018-01-21T01:00:32.914Z,99386.15
2018-01-21T01:03:02.546Z,99402.56
2018-01-21T01:05:31.991Z,99410.98
2018-01-21T01:08:01.282Z,99420.91
2018-01-21T01:10:30.666Z,99427.94
2018-01-21T01:13:00.260Z,99430.91
2018-01-21T01:15:29.634Z,99439.30
2018-01-21T01:17:59.208Z,99443.89
2018-01-21T01:20:28.607Z,99450.11
2018-01-21T01:22:57.783Z,99459.20
2018-01-21T01:25:26.856Z,99469.88
2018-01-21T01:27:56.255Z,99478.20
2018-01-21T01:30:25.362Z,99485.30
2018-01-21T01:32:54.446Z,99490.24
2018-01-21T01:35:24.687Z,99490.13
2018-01-21T01:37:53.864Z,99502.17
2018-01-21T01:40:22.986Z,99507.28
2018-01-21T01:42:52.434Z,99514.28
2018-01-21T01:45:21.594Z,99520.37
2018-01-21T01:47:50.775Z,99533.39
2018-01-21T01:50:20.256Z,99526.69
2018-01-21T01:52:49.383Z,99535.52
2018-01-21T01:55:18.636Z,99533.63
2018-01-21T01:57:47.881Z,99532.39
2018-01-21T02:00:17.093Z,99538.52
2018-01-21T02:02:46.306Z,99546.52
2018-01-21T02:05:15.741Z,99556.55
2018-01-21T02:07:44.922Z,99566.13
2018-01-21T02:10:14.114Z,99576.09
2018-01-21T02:12:43.534Z,99577.02
2018-01-21T02:15:12.661Z,99589.14
2018-01-21T02:17:41.961Z,99596.88
2018-01-21T02:20:11.417Z,99599.21
2018-01-21T02:22:40.633Z,99595.20
2018-01-21T02:25:09.993Z,99598.53
2018-01-21T02:27:39.413Z,99604.66
2018-01-21T02:30:08.591Z,99607.26
2018-01-21T02:32:37.776Z,99614.63
2018-01-21T02:35:07.215Z,99620.78
2018-01-21T02:37:36.593Z,99625.13
2018-01-21T02:40:06.685Z,99632.80
2018-01-21T02:42:37.117Z,99650.69
2018-01-21T02:45:06.221Z,99656.22
2018-01-21T02:47:35.366Z,99663.48
2018-01-21T02:50:05.339Z,99667.13
2018-01-21T02:52:34.465Z,99671.03
2018-01-21T02:55:03.845Z,99685.64
2018-01-21T02:57:33.266Z,99694.02
2018-01-21T03:00:03.524Z,99699.67
2018-01-21T03:02:33.443Z,99709.27
2018-01-21T03:05:03.075Z,99710.52
2018-01-21T03:07:32.253Z,99707.49
2018-01-21T03:10:01.992Z,99709.27
2018-01-21T03:12:31.442Z,99717.50
2018-01-21T03:15:00.602Z,99723.36
2018-01-21T03:17:30.517Z,99737.44
2018-01-21T03:20:00.159Z,99738.47
2018-01-21T03:22:29.310Z,99749.14
2018-01-21T03:24:58.423Z,99753.56
2018-01-21T03:27:27.509Z,99763.52
2018-01-21T03:29:56.665Z,99768.75
2018-01-21T03:32:26.685Z,99767.00
2018-01-21T03:34:55.819Z,99776.64
2018-01-21T03:37:24.922Z,99785.85
2018-01-21T03:39:54.334Z,99800.14
2018-01-21T03:42:23.426Z,99796.63
2018-01-21T03:44:52.533Z,99804.23
2018-01-21T03:47:21.943Z,99808.12
2018-01-21T03:49:51.045Z,99810.21
2018-01-21T03:52:20.143Z,99814.33
2018-01-21T03:54:49.537Z,99818.02
2018-01-21T03:57:18.731Z,99824.91
2018-01-21T03:59:47.890Z,99826.78
2018-01-21T04:02:17.350Z,99828.25
2018-01-21T04:04:46.467Z,99831.96
2018-01-21T04:07:15.698Z,99839.70
2018-01-21T04:09:45.093Z,99845.12
2018-01-21T04:12:14.287Z,99844.97
2018-01-21T04:14:43.444Z,99853.89
2018-01-21T04:17:12.562Z,99857.88
2018-01-21T04:19:41.680Z,99858.66
2018-01-21T04:22:11.074Z,99874.61
2018-01-21T04:24:40.203Z,99874.61
2018-01-21T04:27:09.337Z,99873.61
2018-01-21T04:29:38.482Z,99881.31
2018-01-21T04:32:07.589Z,99878.58
2018-01-21T04:34:37.022Z,99873.79
2018-01-21T04:37:06.159Z,99883.78
2018-01-21T04:39:35.282Z,99898.69
2018-01-21T04:42:05.276Z,99913.91
2018-01-21T04:44:34.570Z,99912.70
2018-01-21T04:47:03.827Z,99922.83
2018-01-21T04:49:33.622Z,99923.81
2018-01-21T04:52:03.619Z,99929.61
2018-01-21T04:54:32.741Z,99939.70
2018-01-21T04:57:02.390Z,99936.77
2018-01-21T04:59:31.515Z,99941.80
2018-01-21T05:02:00.658Z,99944.50
2018-01-21T05:04:30.062Z,99946.27
2018-01-21T05:06:59.172Z,99948.75
2018-01-21T05:09:28.309Z,99950.06
2018-01-21T05:11:57.448Z,99960.38
2018-01-21T05:14:26.594Z,99968.77
2018-01-21T05:16:55.999Z,99977.41
2018-01-21T05:19:25.149Z,99977.06
2018-01-21T05:21:54.254Z,99987.39
2018-01-21T05:24:23.692Z,99992.02
2018-01-21T05:26:52.797Z,99990.50
2018-01-21T05:29:22.645Z,100013.97
2018-01-21T05:31:52.106Z,100013.30
2018-01-21T05:34:21.396Z,100025.71
2018-01-21T05:36:50.512Z,100034.98
2018-01-21T05:39:19.915Z,100037.94
2018-01-21T05:41:49.015Z,100044.57
2018-01-21T05:44:18.261Z,100057.52
2018-01-21T05:46:47.670Z,100050.80
2018-01-21T05:49:16.842Z,100059.91
2018-01-21T05:51:46.170Z,100066.77
2018-01-21T05:54:15.764Z,100072.27
2018-01-21T05:56:44.986Z,100070.42
2018-01-21T05:59:14.109Z,100075.41
2018-01-21T06:01:43.202Z,100086.48
2018-01-21T06:04:12.432Z,100094.58
2018-01-21T06:06:42.005Z,100091.17
2018-01-21T06:09:11.136Z,100096.25
2018-01-21T06:11:40.321Z,100112.25
2018-01-21T06:14:09.596Z,100111.19
2018-01-21T06:16:38.842Z,100121.02
2018-01-21T06:19:08.374Z,100125.86
2018-01-21T06:21:37.519Z,100138.28
2018-01-21T06:24:06.610Z,100142.11
2018-01-21T06:26:36.405Z,100140.64
2018-01-21T06:29:05.667Z,100145.79
2018-01-21T06:31:35.072Z,100154.52
2018-01-21T06:34:05.050Z,100159.95
2018-01-21T06:36:34.255Z,100167.23
2018-01-21T06:39:03.823Z,100169.79
2018-01-21T06:41:33.292Z,100167.34
2018-01-21T06:44:03.146Z,100181.12
2018-01-21T06:46:32.290Z,100182.06
2018-01-21T06:49:01.981Z,100180.05
2018-01-21T06:51:31.369Z,100193.35
2018-01-21T06:54:00.551Z,100204.20
2018-01-21T06:56:30.042Z,100212.36
2018-01-21T06:58:59.152Z,100213.79
2018-01-21T07:01:28.599Z,100210.00
2018-01-21T07:03:58.006Z,100226.85
2018-01-21T07:06:27.110Z,100230.75
2018-01-21T07:08:56.263Z,100242.83
2018-01-21T07:11:26.118Z,100237.57
2018-01-21T07:13:55.247Z,100250.51
2018-01-21T07:16:24.353Z,100258.75
2018-01-21T07:18:53.868Z,100258.66
2018-01-21T07:21:23.156Z,100267.64
2018-01-21T07:23:52.598Z,100261.84
2018-01-21T07:26:22.098Z,100284.44
2018-01-21T07:28:51.236Z,100285.80
2018-01-21T07:31:20.616Z,100291.84
2018-01-21T07:33:50.159Z,100292.31
2018-01-21T07:36:20.101Z,100301.42
2018-01-21T07:38:49.267Z,100316.56
2018-01-21T07:41:19.024Z,100324.30
2018-01-21T07:43:48.156Z,100331.60
2018-01-21T07:46:18.114Z,100345.17
2018-01-21T07:48:47.234Z,100348.35
2018-01-21T07:51:16.493Z,100351.95
2018-01-21T07:53:45.919Z,100366.51
2018-01-21T07:56:15.032Z,100373.02
2018-01-21T07:58:44.169Z,100374.50
2018-01-21T08:01:13.359Z,100379.56
2018-01-21T08:03:42.486Z,100388.31
2018-01-21T08:06:11.940Z,100393.47
2018-01-21T08:08:41.067Z,100398.73
2018-01-21T08:11:10.198Z,100399.86
2018-01-21T08:13:40.274Z,100409.48
2018-01-21T08:16:09.401Z,100410.37
2018-01-21T08:18:38.553Z,100418.98
2018-01-21T08:21:07.998Z,100422.58
2018-01-21T08:23:37.201Z,100424.81
2018-01-21T08:26:06.378Z,100434.04
2018-01-21T08:28:35.774Z,100436.36
2018-01-21T08:31:05.195Z,100443.90
2018-01-21T08:33:36.831Z,100443.09
2018-01-21T08:38:14.431Z,100450.52
2018-01-21T08:41:45.912Z,100454.99
2018-01-21T08:44:15.463Z,100454.63
2018-01-21T08:46:44.766Z,100466.35
2018-01-21T08:49:13.942Z,100471.31
2018-01-21T08:51:43.211Z,100473.04
2018-01-21T08:54:12.537Z,100479.12
2018-01-21T08:56:42.058Z,100486.96
2018-01-21T08:59:12.289Z,100484.83
2018-01-21T09:01:41.425Z,100499.22
2018-01-21T09:04:23.940Z,100502.33
2018-01-21T09:06:53.145Z,100508.48
2018-01-21T09:09:23.307Z,100514.25
2018-01-21T09:11:52.441Z,100506.86
2018-01-21T09:14:23.178Z,100505.33
2018-01-21T09:16:53.172Z,100519.50
2018-01-21T09:19:22.330Z,100531.28
2018-01-21T09:21:51.453Z,100532.28
2018-01-21T09:24:22.937Z,100544.97
2018-01-21T09:26:52.117Z,100541.38
2018-01-21T09:29:21.295Z,100558.98
2018-01-21T09:31:50.818Z,100558.92
2018-01-21T09:34:20.863Z,100561.68
2018-01-21T09:36:50.060Z,100563.16
2018-01-21T09:39:19.754Z,100574.36
2018-01-21T09:41:48.888Z,100581.26
2018-01-21T09:44:18.519Z,100583.92
2018-01-21T09:46:47.941Z,100588.70
2018-01-21T09:49:17.406Z,100585.11
2018-01-21T09:51:46.633Z,100598.66
2018-01-21T09:54:16.071Z,100586.96
2018-01-21T09:56:45.183Z,100589.56
2018-01-21T09:59:14.379Z,100599.38
2018-01-21T10:01:43.825Z,100607.14
2018-01-21T10:04:12.947Z,100607.06
2018-01-21T10:06:42.094Z,100601.02
2018-01-21T10:09:11.239Z,100608.12
2018-01-21T10:11:40.409Z,100608.88
2018-01-21T10:14:09.520Z,100605.66
2018-01-21T10:16:40.276Z,100609.08
2018-01-21T10:19:09.408Z,100609.09
2018-01-21T10:21:38.554Z,100610.31
2018-01-21T10:24:08.066Z,100603.50
2018-01-21T10:26:40.011Z,100607.66
2018-01-21T10:29:09.494Z,100618.42
2018-01-21T10:31:38.980Z,100619.86
2018-01-21T10:34:08.133Z,100625.20
2018-01-21T10:36:37.274Z,100633.44
2018-01-21T10:39:06.844Z,100643.84
2018-01-21T10:41:35.976Z,100643.34
2018-01-21T10:44:05.601Z,100649.46
2018-01-21T10:46:35.363Z,100649.23
2018-01-21T10:49:04.712Z,100650.25
2018-01-21T10:51:34.011Z,100656.97
2018-01-21T10:54:05.296Z,100650.97
2018-01-21T10:56:34.555Z,100654.48
2018-01-21T10:59:04.131Z,100657.48
2018-01-21T11:01:33.462Z,100658.15
2018-01-21T11:04:03.282Z,100665.42
2018-01-21T11:06:32.813Z,100669.35
2018-01-21T11:09:02.990Z,100667.34
2018-01-21T11:11:32.220Z,100668.03
2018-01-21T11:14:02.455Z,100667.48
2018-01-21T11:16:31.772Z,100666.63
2018-01-21T11:19:01.119Z,100669.25
2018-01-21T11:21:30.247Z,100664.88
2018-01-21T11:23:59.385Z,100672.21
2018-01-21T11:26:28.708Z,100681.13
2018-01-21T11:28:57.848Z,100687.34
2018-01-21T11:31:27.019Z,100688.59
2018-01-21T11:33:56.443Z,100689.37
2018-01-21T11:36:25.660Z,100700.16
2018-01-21T11:38:54.826Z,100708.27
2018-01-21T11:41:24.084Z,100711.83
2018-01-21T11:43:53.307Z,100702.95
2018-01-21T11:46:22.768Z,100703.90
2018-01-21T11:48:51.967Z,100701.00
2018-01-21T11:51:21.083Z,100703.48
2018-01-21T11:53:50.239Z,100700.14
2018-01-21T11:56:19.762Z,100694.64
2018-01-21T11:58:49.329Z,100703.91
2018-01-21T12:01:18.599Z,100698.95
2018-01-21T12:03:47.720Z,100698.59
2018-01-21T12:06:18.211Z,100695.70
2018-01-21T12:08:47.405Z,100703.81
2018-01-21T12:11:16.699Z,100701.39
2018-01-21T12:13:46.102Z,100712.09
2018-01-21T12:16:15.257Z,100716.41
2018-01-21T12:18:44.463Z,100709.36
2018-01-21T12:21:13.945Z,100715.89
2018-01-21T12:23:44.154Z,100711.18
2018-01-21T12:26:13.326Z,100716.91
2018-01-21T12:28:42.517Z,100714.87
2018-01-21T12:31:11.650Z,100713.27
2018-01-21T12:33:40.802Z,100721.63
2018-01-21T12:36:10.256Z,100715.81
2018-01-21T12:38:39.394Z,100712.88
2018-01-21T12:41:08.600Z,100721.84
2018-01-21T12:43:39.218Z,100715.97
2018-01-21T12:46:08.441Z,100712.80
2018-01-21T12:48:37.584Z,100713.89
2018-01-21T12:51:08.244Z,100719.32
2018-01-21T12:53:37.551Z,100722.11
2018-01-21T12:56:06.699Z,100730.38
2018-01-21T12:58:36.195Z,100735.52
2018-01-21T13:01:05.362Z,100730.06
2018-01-21T13:03:34.532Z,100734.78
2018-01-21T13:06:04.981Z,100727.78
2018-01-21T13:08:34.208Z,100725.81
2018-01-21T13:11:03.978Z,100729.67
2018-01-21T13:13:33.460Z,100733.77
2018-01-21T13:16:04.860Z,100724.63
2018-01-21T13:18:34.100Z,100726.47
2018-01-21T13:21:04.796Z,100722.83
2018-01-21T13:23:33.940Z,100727.94
2018-01-21T13:26:04.515Z,100743.17
2018-01-21T13:28:35.299Z,100749.27
2018-01-21T13:31:04.710Z,100742.66
2018-01-21T13:33:33.843Z,100749.17
2018-01-21T13:36:04.200Z,100752.55
2018-01-21T13:38:33.368Z,100758.58
2018-01-21T13:41:02.814Z,100763.19
2018-01-21T13:43:32.252Z,100769.81
2018-01-21T13:46:02.476Z,100769.98
2018-01-21T13:48:31.708Z,100771.03
2018-01-21T13:51:01.498Z,100784.93
2018-01-21T13:53:30.615Z,100782.63
2018-01-21T13:55:59.927Z,100771.64
2018-01-21T13:58:29.678Z,100777.86
2018-01-21T14:00:59.266Z,100786.25
2018-01-21T14:03:28.615Z,100797.05
2018-01-21T14:05:58.099Z,100791.86
2018-01-21T14:08:27.379Z,100785.98
2018-01-21T14:10:56.525Z,100796.97
2018-01-21T14:13:26.788Z,100799.45
2018-01-21T14:15:55.965Z,100801.64
2018-01-21T14:18:25.107Z,100805.55
2018-01-21T14:20:54.591Z,100809.21
2018-01-21T14:23:23.844Z,100803.27
2018-01-21T14:25:53.166Z,100793.32
2018-01-21T14:28:25.499Z,100800.52
2018-01-21T14:30:54.833Z,100806.60
2018-01-21T14:33:24.207Z,100808.36
2018-01-21T14:35:53.351Z,100808.11
2018-01-21T14:38:23.128Z,100795.85
2018-01-21T14:40:52.623Z,100795.92
2018-01-21T14:43:23.477Z,100794.30
2018-01-21T14:45:52.707Z,100801.88
2018-01-21T14:48:22.324Z,100804.99
2018-01-21T14:50:52.132Z,100803.12
2018-01-21T14:53:21.909Z,100808.59
2018-01-21T14:55:51.434Z,100811.81
2018-01-21T14:58:20.784Z,100809.27
2018-01-21T15:00:49.982Z,100818.77
2018-01-21T15:03:20.649Z,100821.98
2018-01-21T15:05:49.856Z,100828.48
2018-01-21T15:08:19.144Z,100826.84
2018-01-21T15:10:48.860Z,100825.43
2018-01-21T15:13:20.092Z,100823.50
2018-01-21T15:15:51.420Z,100828.77
2018-01-21T15:18:24.024Z,100827.30
2018-01-21T15:20:53.638Z,100833.81
2018-01-21T15:23:23.110Z,100830.64
2018-01-21T15:25:52.387Z,100831.47
2018-01-21T15:28:22.181Z,100832.62
2018-01-21T15:30:51.531Z,100827.89
2018-01-21T15:33:24.600Z,100825.72
2018-01-21T15:35:54.123Z,100824.78
2018-01-21T15:38:23.526Z,100826.56
2018-01-21T15:40:52.908Z,100826.56
2018-01-21T15:43:22.577Z,100833.27
2018-01-21T15:45:51.782Z,100833.53
2018-01-21T15:48:22.169Z,100837.43
2018-01-21T15:50:51.803Z,100834.66
2018-01-21T15:53:21.085Z,100835.47
2018-01-21T15:55:50.299Z,100835.78
2018-01-21T15:58:20.146Z,100832.50
2018-01-21T16:00:49.418Z,100843.11
2018-01-21T16:03:18.876Z,100839.84
2018-01-21T16:05:48.458Z,100842.08
2018-01-21T16:08:18.098Z,100847.39
2018-01-21T16:10:47.986Z,100849.40
2018-01-21T16:13:17.907Z,100848.27
2018-01-21T16:15:47.823Z,100849.14
2018-01-21T16:18:17.128Z,100853.22
2018-01-21T16:20:47.391Z,100848.44
2018-01-21T16:23:16.655Z,100841.81
2018-01-21T16:25:46.013Z,100844.41
2018-01-21T16:28:15.237Z,100842.78
2018-01-21T16:30:44.434Z,100850.13
2018-01-21T16:33:13.635Z,100851.70
2018-01-21T16:35:42.800Z,100857.45
2018-01-21T16:39:20.987Z,100860.10
2018-01-21T16:41:50.667Z,100853.60
2018-01-21T16:44:20.779Z,100857.40
2018-01-21T16:46:50.312Z,100854.14
2018-01-21T16:49:19.742Z,100852.95
2018-01-21T16:51:48.898Z,100851.91
2018-01-21T16:54:18.396Z,100843.01
2018-01-21T16:56:47.562Z,100844.69
2018-01-21T16:59:16.767Z,100841.77
2018-01-21T17:01:46.278Z,100839.11
2018-01-21T17:04:15.734Z,100847.63
2018-01-21T17:06:46.567Z,100840.95
2018-01-21T17:09:16.272Z,100853.82
2018-01-21T17:11:45.425Z,100860.55
2018-01-21T17:14:14.569Z,100857.88
2018-01-21T17:16:44.088Z,100856.14
2018-01-21T17:19:13.284Z,100842.64
2018-01-21T17:21:42.930Z,100848.88
2018-01-21T17:24:13.316Z,100845.95
2018-01-21T17:26:42.705Z,100847.14
2018-01-21T17:29:12.058Z,100834.33
2018-01-21T17:31:42.793Z,100830.73
2018-01-21T17:34:12.106Z,100831.61
2018-01-21T17:36:42.465Z,100828.95
2018-01-21T17:39:13.104Z,100822.38
2018-01-21T17:41:42.404Z,100819.55
2018-01-21T17:44:11.776Z,100819.61
2018-01-21T17:46:40.914Z,100817.18
2018-01-21T17:49:10.126Z,100808.02
2018-01-21T17:51:39.857Z,100819.72
2018-01-21T17:54:09.387Z,100807.13
2018-01-21T17:56:38.592Z,100810.08
2018-01-21T17:59:07.799Z,100804.27
2018-01-21T18:01:37.088Z,100812.61
2018-01-21T18:04:06.279Z,100810.83
2018-01-21T18:06:35.775Z,100809.79
2018-01-21T18:09:05.532Z,100804.31
2018-01-21T18:11:35.908Z,100802.70
2018-01-21T18:14:06.235Z,100799.16
2018-01-21T18:16:36.564Z,100799.37
2018-01-21T18:19:06.933Z,100797.42
2018-01-21T18:21:36.414Z,100797.02
2018-01-21T18:24:06.675Z,100798.50
2018-01-21T18:26:36.597Z,100800.76
2018-01-21T18:29:06.107Z,100796.06
2018-01-21T18:31:36.483Z,100793.07
2018-01-21T18:34:06.660Z,100792.39
2018-01-21T18:36:36.265Z,100796.65
2018-01-21T18:39:05.582Z,100796.05
2018-01-21T18:41:34.827Z,100802.73
2018-01-21T18:44:05.908Z,100799.03
2018-01-21T18:46:36.150Z,100795.28
2018-01-21T18:49:05.364Z,100788.02
2018-01-21T18:51:34.860Z,100793.08
2018-01-21T18:54:04.807Z,100792.53
2018-01-21T18:56:35.720Z,100794.98
2018-01-21T18:59:05.523Z,100787.66
2018-01-21T19:01:35.710Z,100791.07
2018-01-21T19:04:06.626Z,100783.64
2018-01-21T19:06:36.056Z,100781.84
2018-01-21T19:09:06.046Z,100777.13
2018-01-21T19:11:35.517Z,100779.23
2018-01-21T19:14:06.037Z,100775.34
2018-01-21T19:16:35.434Z,100766.67
2018-01-21T19:19:04.961Z,100769.70
2018-01-21T19:21:34.634Z,100767.03
2018-01-21T19:24:04.986Z,100767.92
2018-01-21T19:26:34.710Z,100759.72
2018-01-21T19:29:04.735Z,100752.52
2018-01-21T19:31:34.135Z,100751.58
2018-01-21T19:34:04.787Z,100751.91
2018-01-21T19:36:34.510Z,100745.73
2018-01-21T19:39:04.448Z,100738.29
2018-01-21T19:41:34.227Z,100743.92
2018-01-21T19:44:04.635Z,100734.66
2018-01-21T19:46:34.119Z,100733.03
2018-01-21T19:49:03.599Z,100729.41
2018-01-21T19:51:33.592Z,100729.34
2018-01-21T19:54:04.064Z,100738.69
2018-01-21T19:56:33.580Z,100738.41
2018-01-21T19:59:04.021Z,100728.64
2018-01-21T20:01:33.248Z,100722.02
2018-01-21T20:04:03.750Z,100715.47
2018-01-21T20:06:35.124Z,100719.73
2018-01-21T20:09:05.570Z,100719.74
2018-01-21T20:11:34.952Z,100720.23
2018-01-21T20:14:06.243Z,100709.71
2018-01-21T20:16:35.740Z,100721.85
2018-01-21T20:19:05.230Z,100721.85
2018-01-21T20:21:36.086Z,100709.16
2018-01-21T20:24:05.887Z,100703.25
2018-01-21T20:26:35.116Z,100688.45
2018-01-21T20:29:04.863Z,100677.13
2018-01-21T20:31:34.193Z,100682.66
2018-01-21T20:34:04.418Z,100687.64
2018-01-21T20:36:33.660Z,100680.70
2018-01-21T20:39:03.099Z,100663.68
2018-01-21T20:41:34.300Z,100651.63
2018-01-21T20:44:05.558Z,100651.74
2018-01-21T20:46:34.904Z,100653.42
2018-01-21T20:49:04.830Z,100655.04
2018-01-21T20:51:38.216Z,100657.22
2018-01-21T20:54:11.724Z,100647.89
2018-01-21T20:56:41.465Z,100632.91
2018-01-21T20:59:10.629Z,100629.14
2018-01-21T21:01:39.863Z,100629.58
2018-01-21T21:04:09.513Z,100629.41
2018-01-21T21:06:38.672Z,100626.20
2018-01-21T21:09:07.905Z,100620.51
2018-01-21T21:11:37.543Z,100612.21
2018-01-21T21:14:06.900Z,100615.74
2018-01-21T21:16:36.007Z,100605.88
2018-01-21T21:19:05.425Z,100594.93
2018-01-21T21:21:34.881Z,100593.34
2018-01-21T21:24:05.660Z,100581.20
2018-01-21T21:26:35.051Z,100574.34
2018-01-21T21:29:04.657Z,100560.52
2018-01-21T21:31:34.143Z,100555.44
2018-01-21T21:34:04.041Z,100553.58
2018-01-21T21:36:33.586Z,100543.84
2018-01-21T21:39:03.081Z,100543.75
2018-01-21T21:41:32.497Z,100539.47
2018-01-21T21:44:03.197Z,100541.92
2018-01-21T21:46:33.384Z,100532.37
2018-01-21T21:49:02.903Z,100526.45
2018-01-21T21:51:32.504Z,100512.31
2018-01-21T21:54:03.623Z,100509.70
2018-01-21T21:56:33.030Z,100514.31
2018-01-21T21:59:02.975Z,100515.61
2018-01-21T22:01:32.249Z,100523.70
2018-01-21T22:04:03.015Z,100515.73
2018-01-21T22:06:33.166Z,100513.34
2018-01-21T22:09:02.619Z,100511.88
2018-01-21T22:11:31.953Z,100506.50
2018-01-21T22:14:01.850Z,100494.23
2018-01-21T22:16:31.211Z,100496.38
2018-01-21T22:19:00.382Z,100491.01
2018-01-21T22:21:29.519Z,100488.63
2018-01-21T22:23:58.683Z,100492.98
2018-01-21T22:26:29.758Z,100487.38
2018-01-21T22:28:58.904Z,100477.95
2018-01-21T22:31:28.461Z,100488.09
2018-01-21T22:33:58.065Z,100485.39
2018-01-21T22:36:27.367Z,100473.67
2018-01-21T22:38:56.758Z,100469.62
2018-01-21T22:41:26.397Z,100462.50
2018-01-21T22:43:55.679Z,100466.20
2018-01-21T22:46:24.971Z,100465.28
2018-01-21T22:48:55.056Z,100464.05
2018-01-21T22:51:24.935Z,100451.72
2018-01-21T22:53:54.242Z,100449.73
2018-01-21T22:56:23.864Z,100442.42
2018-01-21T22:58:53.042Z,100438.00
2018-01-21T23:01:22.263Z,100427.65
2018-01-21T23:03:52.832Z,100423.53
2018-01-21T23:06:22.064Z,100414.03
2018-01-21T23:08:51.331Z,100407.73
2018-01-21T23:11:21.761Z,100408.41
2018-01-21T23:13:51.161Z,100405.42
2018-01-21T23:16:21.703Z,100404.30
2018-01-21T23:18:52.466Z,100393.91
2018-01-21T23:21:22.837Z,100395.07
2018-01-21T23:23:52.969Z,100386.39
2018-01-21T23:26:22.573Z,100391.97
2018-01-21T23:28:51.676Z,100381.56
2018-01-21T23:31:21.015Z,100368.06
2018-01-21T23:33:50.554Z,100371.66
2018-01-21T23:36:20.052Z,100377.72
2018-01-21T23:38:49.235Z,100363.13
2018-01-21T23:41:20.381Z,100369.36
2018-01-21T23:43:49.737Z,100372.82
2018-01-21T23:46:19.108Z,100370.02
2018-01-21T23:48:48.709Z,100364.17
2018-01-21T23:51:18.103Z,100374.73
2018-01-21T23:53:47.471Z,100368.80
2018-01-21T23:56:16.938Z,100363.01
2018-01-21T23:58:46.549Z,100361.27
